createdAt,value
2018-03-11T00:02:06.413Z,8.20
2018-03-11T00:04:34.038Z,8.20
2018-03-11T00:07:01.637Z,8.20
2018-03-11T00:09:30.025Z,8.10
2018-03-11T00:11:57.653Z,8.00
2018-03-11T00:14:25.281Z,8.10
2018-03-11T00:16:52.953Z,8.00
2018-03-11T00:19:20.553Z,8.00
2018-03-11T00:21:48.169Z,8.00
2018-03-11T00:24:15.793Z,7.90
2018-03-11T00:26:43.416Z,7.90
2018-03-11T00:29:11.786Z,7.90
2018-03-11T00:31:40.181Z,7.80
2018-03-11T00:34:07.778Z,7.70
2018-03-11T00:36:35.400Z,7.80
2018-03-11T00:39:03.001Z,7.80
2018-03-11T00:41:30.629Z,7.70
2018-03-11T00:43:58.992Z,7.70
2018-03-11T00:46:27.377Z,7.60
2018-03-11T00:48:54.974Z,7.60
2018-03-11T00:51:22.568Z,7.70
2018-03-11T00:53:50.184Z,7.60
2018-03-11T00:56:18.577Z,7.60
2018-03-11T00:58:46.196Z,7.50
2018-03-11T01:01:13.793Z,7.60
2018-03-11T01:03:41.434Z,7.60
2018-03-11T01:06:09.029Z,7.60
2018-03-11T01:08:36.656Z,7.50
2018-03-11T01:11:04.253Z,7.60
2018-03-11T01:13:31.876Z,7.60
2018-03-11T01:16:00.242Z,7.60
2018-03-11T01:18:28.636Z,7.60
2018-03-11T01:20:56.260Z,7.50
2018-03-11T01:23:24.660Z,7.60
2018-03-11T01:25:52.257Z,7.50
2018-03-11T01:28:19.849Z,7.60
2018-03-11T01:30:47.498Z,7.60
2018-03-11T01:33:15.096Z,7.50
2018-03-11T01:35:42.689Z,7.60
2018-03-11T01:38:10.304Z,7.60
2018-03-11T01:40:38.668Z,7.60
2018-03-11T01:43:07.074Z,7.60
2018-03-11T01:45:34.669Z,7.50
2018-03-11T01:48:03.033Z,7.50
2018-03-11T01:50:30.684Z,7.50
2018-03-11T01:53:09.138Z,7.60
2018-03-11T01:55:36.741Z,7.60
2018-03-11T01:58:05.129Z,7.60
2018-03-11T02:00:32.725Z,7.50
2018-03-11T02:03:00.350Z,7.60
2018-03-11T02:05:27.972Z,7.60
2018-03-11T02:07:55.865Z,7.60
2018-03-11T02:10:23.489Z,7.60
2018-03-11T02:12:51.093Z,7.50
2018-03-11T02:15:18.720Z,7.50
2018-03-11T02:17:47.084Z,7.50
2018-03-11T02:20:15.489Z,7.50
2018-03-11T02:22:43.101Z,7.40
2018-03-11T02:25:10.717Z,7.50
2018-03-11T02:27:38.345Z,7.40
2018-03-11T02:30:05.949Z,7.40
2018-03-11T02:32:33.597Z,7.40
2018-03-11T02:35:01.962Z,7.30
2018-03-11T02:37:30.324Z,7.30
2018-03-11T02:39:57.953Z,7.30
2018-03-11T02:42:26.345Z,7.20
2018-03-11T02:44:53.987Z,7.20
2018-03-11T02:47:21.585Z,7.20
2018-03-11T02:49:49.181Z,7.20
2018-03-11T02:52:16.817Z,7.20
2018-03-11T02:54:45.185Z,7.20
2018-03-11T02:57:13.604Z,7.10
2018-03-11T02:59:41.228Z,7.10
2018-03-11T03:02:08.849Z,7.10
2018-03-11T03:04:36.464Z,7.10
2018-03-11T03:07:04.089Z,7.10
2018-03-11T03:09:31.684Z,7.10
2018-03-11T03:11:59.329Z,7.10
2018-03-11T03:14:26.936Z,7.10
2018-03-11T03:16:54.580Z,7.10
2018-03-11T03:19:22.201Z,7.00
2018-03-11T03:21:49.869Z,7.00
2018-03-11T03:24:17.509Z,7.00
2018-03-11T03:26:45.113Z,7.00
2018-03-11T03:29:12.718Z,7.00
2018-03-11T03:31:40.346Z,7.00
2018-03-11T03:34:07.952Z,7.00
2018-03-11T03:36:35.592Z,7.00
2018-03-11T03:39:03.952Z,7.00
2018-03-11T03:41:32.317Z,7.00
2018-03-11T03:44:00.709Z,6.90
2018-03-11T03:46:28.305Z,6.90
2018-03-11T03:48:55.929Z,7.00
2018-03-11T03:51:23.553Z,7.00
2018-03-11T03:53:51.181Z,6.90
2018-03-11T03:56:18.776Z,6.90
2018-03-11T03:58:46.400Z,6.90
2018-03-11T04:01:13.998Z,6.90
2018-03-11T04:03:42.360Z,6.90
2018-03-11T04:06:09.997Z,6.80
2018-03-11T04:08:37.593Z,6.90
2018-03-11T04:11:05.197Z,6.80
2018-03-11T04:13:33.586Z,6.80
2018-03-11T04:16:01.234Z,6.70
2018-03-11T04:18:28.835Z,6.80
2018-03-11T04:20:56.436Z,6.80
2018-03-11T04:23:24.056Z,6.70
2018-03-11T04:25:52.419Z,6.70
2018-03-11T04:28:20.049Z,6.60
2018-03-11T04:30:47.948Z,6.70
2018-03-11T04:33:15.577Z,6.70
2018-03-11T04:35:43.201Z,6.70
2018-03-11T04:38:10.830Z,6.70
2018-03-11T04:40:38.424Z,6.70
2018-03-11T04:43:06.018Z,6.70
2018-03-11T04:45:33.653Z,6.70
2018-03-11T04:48:01.249Z,6.70
2018-03-11T04:50:28.853Z,6.70
2018-03-11T04:52:56.481Z,6.70
2018-03-11T04:55:24.117Z,6.70
2018-03-11T04:57:51.791Z,6.80
2018-03-11T05:00:19.404Z,6.80
2018-03-11T05:02:47.189Z,6.80
2018-03-11T05:05:14.814Z,6.80
2018-03-11T05:07:42.453Z,6.80
2018-03-11T05:10:10.048Z,6.80
2018-03-11T05:12:37.673Z,6.70
2018-03-11T05:15:05.280Z,6.70
2018-03-11T05:17:32.877Z,6.80
2018-03-11T05:20:00.500Z,6.70
2018-03-11T05:22:28.100Z,6.70
2018-03-11T05:24:56.509Z,6.70
2018-03-11T05:27:24.170Z,6.60
2018-03-11T05:29:51.773Z,6.70
2018-03-11T05:32:19.417Z,6.70
2018-03-11T05:34:47.012Z,6.70
2018-03-11T05:37:14.648Z,6.60
2018-03-11T05:39:42.245Z,6.60
2018-03-11T05:42:10.645Z,6.70
2018-03-11T05:44:38.272Z,6.60
2018-03-11T05:47:05.868Z,6.70
2018-03-11T05:49:33.497Z,6.60
2018-03-11T05:52:01.094Z,6.60
2018-03-11T05:54:29.484Z,6.60
2018-03-11T05:56:57.080Z,6.50
2018-03-11T05:59:24.763Z,6.60
2018-03-11T06:01:53.100Z,6.50
2018-03-11T06:04:20.725Z,6.50
2018-03-11T06:06:48.332Z,6.50
2018-03-11T06:09:15.953Z,6.50
2018-03-11T06:11:44.362Z,6.50
2018-03-11T06:14:12.038Z,6.50
2018-03-11T06:16:39.633Z,6.50
2018-03-11T06:19:07.320Z,6.50
2018-03-11T06:21:34.949Z,6.50
2018-03-11T06:24:02.540Z,6.50
2018-03-11T06:26:30.263Z,6.50
2018-03-11T06:28:57.957Z,6.60
2018-03-11T06:31:25.564Z,6.50
2018-03-11T06:33:53.188Z,6.60
2018-03-11T06:36:20.808Z,6.60
2018-03-11T06:38:48.437Z,6.60
2018-03-11T06:41:16.804Z,6.60
2018-03-11T06:43:45.197Z,6.60
2018-03-11T06:46:12.793Z,6.60
2018-03-11T06:48:40.528Z,6.60
2018-03-11T06:51:08.162Z,6.60
2018-03-11T06:53:35.811Z,6.60
2018-03-11T06:56:03.405Z,6.70
2018-03-11T06:58:31.769Z,6.70
2018-03-11T07:00:59.392Z,6.70
2018-03-11T07:03:27.025Z,6.70
2018-03-11T07:05:54.621Z,6.70
2018-03-11T07:08:22.215Z,6.80
2018-03-11T07:10:50.808Z,6.80
2018-03-11T07:13:18.430Z,6.80
2018-03-11T07:15:46.052Z,6.80
2018-03-11T07:18:13.717Z,6.70
2018-03-11T07:20:41.357Z,6.70
2018-03-11T07:23:08.965Z,6.70
2018-03-11T07:25:36.566Z,6.70
2018-03-11T07:28:04.357Z,6.80
2018-03-11T07:30:31.956Z,6.70
2018-03-11T07:32:59.585Z,6.70
2018-03-11T07:35:27.181Z,6.70
2018-03-11T07:37:55.569Z,6.70
2018-03-11T07:40:23.261Z,6.70
2018-03-11T07:42:50.900Z,6.80
2018-03-11T07:45:18.532Z,6.80
2018-03-11T07:47:46.153Z,6.80
2018-03-11T07:50:13.813Z,6.80
2018-03-11T07:52:41.409Z,6.80
2018-03-11T07:55:09.029Z,6.90
2018-03-11T07:57:36.617Z,6.80
2018-03-11T08:00:05.005Z,6.80
2018-03-11T08:02:32.629Z,6.80
2018-03-11T08:05:01.014Z,6.90
2018-03-11T08:07:28.612Z,6.80
2018-03-11T08:09:56.253Z,6.90
2018-03-11T08:12:23.845Z,6.80
2018-03-11T08:14:51.433Z,6.80
2018-03-11T08:17:19.057Z,6.90
2018-03-11T08:19:46.681Z,6.90
2018-03-11T08:22:15.062Z,6.90
2018-03-11T08:24:42.653Z,6.90
2018-03-11T08:27:10.273Z,6.90
2018-03-11T08:29:37.870Z,6.90
2018-03-11T08:32:06.264Z,6.90
2018-03-11T08:34:33.861Z,6.90
2018-03-11T08:37:01.452Z,7.00
2018-03-11T08:39:29.109Z,7.00
2018-03-11T08:41:56.709Z,7.00
2018-03-11T08:44:24.321Z,7.00
2018-03-11T08:46:51.945Z,7.10
2018-03-11T08:49:19.574Z,7.20
2018-03-11T08:51:47.173Z,7.20
2018-03-11T08:54:14.805Z,7.20
2018-03-11T08:56:42.412Z,7.30
2018-03-11T08:59:10.005Z,7.30
2018-03-11T09:01:37.625Z,7.30
2018-03-11T09:04:05.217Z,7.40
2018-03-11T09:06:32.845Z,7.40
2018-03-11T09:09:00.481Z,7.40
2018-03-11T09:11:28.098Z,7.40
2018-03-11T09:13:55.702Z,7.50
2018-03-11T09:16:23.329Z,7.50
2018-03-11T09:18:50.949Z,7.50
2018-03-11T09:21:18.918Z,7.60
2018-03-11T09:23:46.525Z,7.60
2018-03-11T09:26:14.920Z,7.60
2018-03-11T09:28:42.525Z,7.60
2018-03-11T09:31:10.922Z,7.70
2018-03-11T09:33:42.396Z,7.70
2018-03-11T09:36:10.026Z,7.70
2018-03-11T09:38:37.648Z,7.80
2018-03-11T09:41:05.246Z,7.80
2018-03-11T09:43:32.872Z,7.90
2018-03-11T09:46:00.500Z,7.80
2018-03-11T09:48:28.124Z,7.90
2018-03-11T09:50:55.749Z,7.90
2018-03-11T09:53:24.145Z,8.00
2018-03-11T09:55:51.741Z,7.90
2018-03-11T09:58:19.385Z,8.00
2018-03-11T10:00:46.986Z,8.00
2018-03-11T10:03:14.614Z,8.10
2018-03-11T10:05:42.240Z,8.10
2018-03-11T10:08:09.841Z,8.20
2018-03-11T10:10:37.505Z,8.20
2018-03-11T10:13:05.101Z,8.30
2018-03-11T10:15:33.489Z,8.40
2018-03-11T10:18:01.088Z,8.30
2018-03-11T10:20:28.713Z,8.40
2018-03-11T10:22:56.304Z,8.40
2018-03-11T10:25:24.712Z,8.50
2018-03-11T10:27:52.370Z,8.50
2018-03-11T10:30:19.973Z,8.50
2018-03-11T10:32:47.601Z,8.50
2018-03-11T10:35:15.989Z,8.60
2018-03-11T10:37:43.636Z,8.60
2018-03-11T10:40:11.262Z,8.60
2018-03-11T10:42:39.661Z,8.70
2018-03-11T10:45:07.257Z,8.60
2018-03-11T10:47:34.857Z,8.70
2018-03-11T10:50:02.485Z,8.70
2018-03-11T10:52:30.109Z,8.70
2018-03-11T10:54:58.505Z,8.80
2018-03-11T10:57:26.102Z,8.70
2018-03-11T10:59:53.725Z,8.80
2018-03-11T11:02:27.850Z,8.90
2018-03-11T11:05:00.472Z,8.90
2018-03-11T11:07:28.069Z,8.90
2018-03-11T11:09:56.460Z,8.90
2018-03-11T11:12:24.056Z,8.90
2018-03-11T11:14:51.701Z,8.90
2018-03-11T11:17:19.441Z,9.00
2018-03-11T11:19:47.052Z,9.00
2018-03-11T11:22:14.653Z,9.10
2018-03-11T11:24:42.273Z,9.10
2018-03-11T11:27:09.865Z,9.10
2018-03-11T11:29:38.257Z,9.10
2018-03-11T11:32:05.860Z,9.00
2018-03-11T11:34:33.456Z,9.10
2018-03-11T11:37:01.076Z,9.20
2018-03-11T11:39:28.789Z,9.20
2018-03-11T11:41:56.429Z,9.20
2018-03-11T11:44:24.037Z,9.20
2018-03-11T11:46:51.669Z,9.20
2018-03-11T11:49:20.025Z,9.20
2018-03-11T11:51:48.423Z,9.20
2018-03-11T11:54:16.020Z,9.20
2018-03-11T11:56:43.755Z,9.30
2018-03-11T11:59:11.381Z,9.30
2018-03-11T12:01:38.986Z,9.30
2018-03-11T12:04:06.632Z,9.30
2018-03-11T12:06:34.228Z,9.40
2018-03-11T12:09:02.336Z,9.40
2018-03-11T12:11:29.934Z,9.40
2018-03-11T12:13:57.549Z,9.40
2018-03-11T12:16:25.147Z,9.40
2018-03-11T12:18:52.879Z,9.40
2018-03-11T12:21:20.473Z,9.40
2018-03-11T12:23:48.073Z,9.40
2018-03-11T12:26:15.699Z,9.50
2018-03-11T12:28:43.469Z,9.50
2018-03-11T12:31:11.092Z,9.60
2018-03-11T12:33:38.862Z,9.60
2018-03-11T12:36:07.289Z,9.60
2018-03-11T12:38:34.884Z,9.60
2018-03-11T12:41:02.785Z,9.60
2018-03-11T12:43:30.378Z,9.70
2018-03-11T12:45:58.330Z,9.60
2018-03-11T12:48:25.921Z,9.60
2018-03-11T12:50:53.644Z,9.70
2018-03-11T12:53:22.013Z,9.70
2018-03-11T12:55:50.479Z,9.60
2018-03-11T12:58:18.037Z,9.60
2018-03-11T13:00:46.333Z,9.60
2018-03-11T13:03:13.899Z,9.60
2018-03-11T13:05:41.440Z,9.60
2018-03-11T13:08:09.003Z,9.60
2018-03-11T13:10:36.539Z,9.60
2018-03-11T13:13:04.098Z,9.60
2018-03-11T13:15:31.829Z,9.60
2018-03-11T13:18:00.385Z,9.60
2018-03-11T13:23:33.774Z,9.60
2018-03-11T13:26:02.103Z,9.60
2018-03-11T13:28:41.873Z,9.60
2018-03-11T13:31:10.224Z,9.60
2018-03-11T13:33:49.616Z,9.60
2018-03-11T13:36:17.159Z,9.60
2018-03-11T13:38:56.592Z,9.60
2018-03-11T13:41:24.140Z,9.60
2018-03-11T13:43:51.704Z,9.60
2018-03-11T13:46:31.312Z,9.60
2018-03-11T13:48:58.859Z,9.60
2018-03-11T13:51:38.482Z,9.60
2018-03-11T13:54:06.012Z,9.60
2018-03-11T13:56:33.575Z,9.60
2018-03-11T13:59:01.740Z,9.60
2018-03-11T14:01:29.401Z,9.60
2018-03-11T14:03:56.997Z,9.60
2018-03-11T14:06:25.389Z,9.70
2018-03-11T14:08:52.980Z,9.60
2018-03-11T14:11:20.598Z,9.60
2018-03-11T14:13:48.212Z,9.60
2018-03-11T14:16:15.833Z,9.60
2018-03-11T14:18:43.453Z,9.60
2018-03-11T14:21:11.041Z,9.60
2018-03-11T14:23:39.430Z,9.60
2018-03-11T14:26:07.029Z,9.60
2018-03-11T14:28:34.660Z,9.60
2018-03-11T14:31:02.258Z,9.70
2018-03-11T14:33:29.853Z,9.60
2018-03-11T14:35:57.489Z,9.70
2018-03-11T14:38:25.086Z,9.70
2018-03-11T14:40:52.680Z,9.70
2018-03-11T14:43:20.305Z,9.70
2018-03-11T14:45:48.030Z,9.70
2018-03-11T14:48:15.621Z,9.70
2018-03-11T14:50:43.258Z,9.80
2018-03-11T14:53:10.893Z,9.70
2018-03-11T14:55:38.509Z,9.80
2018-03-11T14:58:06.138Z,9.80
2018-03-11T15:00:33.755Z,9.80
2018-03-11T15:03:01.405Z,9.80
2018-03-11T15:05:29.016Z,9.80
2018-03-11T15:07:56.609Z,9.80
2018-03-11T15:10:24.254Z,9.80
2018-03-11T15:12:51.852Z,9.80
2018-03-11T15:15:19.444Z,9.80
2018-03-11T15:17:47.070Z,9.90
2018-03-11T15:20:14.664Z,9.90
2018-03-11T15:22:43.065Z,9.90
2018-03-11T15:25:10.653Z,9.80
2018-03-11T15:27:38.282Z,9.90
2018-03-11T15:30:05.881Z,9.90
2018-03-11T15:32:33.502Z,9.90
2018-03-11T15:35:01.227Z,9.90
2018-03-11T15:37:28.822Z,9.90
2018-03-11T15:39:56.434Z,9.90
2018-03-11T15:42:24.167Z,9.90
2018-03-11T15:44:51.776Z,9.90
2018-03-11T15:47:19.446Z,9.80
2018-03-11T15:49:47.045Z,9.80
2018-03-11T15:52:15.474Z,9.80
2018-03-11T15:54:43.065Z,9.70
2018-03-11T15:57:11.453Z,9.80
2018-03-11T15:59:39.053Z,9.70
2018-03-11T16:02:06.685Z,9.80
2018-03-11T16:04:34.276Z,9.80
2018-03-11T16:07:01.869Z,9.70
2018-03-11T16:09:29.511Z,9.70
2018-03-11T16:11:57.105Z,9.80
2018-03-11T16:14:24.700Z,9.70
2018-03-11T16:16:52.320Z,9.70
2018-03-11T16:19:19.923Z,9.70
2018-03-11T16:21:47.657Z,9.70
2018-03-11T16:24:28.277Z,9.70
2018-03-11T16:26:42.880Z,9.70
2018-03-11T16:29:11.265Z,9.80
2018-03-11T16:31:38.898Z,9.70
2018-03-11T16:34:06.525Z,9.80
2018-03-11T16:36:34.121Z,9.80
2018-03-11T16:39:02.324Z,9.80
2018-03-11T16:41:29.921Z,9.80
2018-03-11T16:43:57.599Z,9.80
2018-03-11T16:46:25.198Z,9.80
2018-03-11T16:48:52.901Z,9.70
2018-03-11T16:51:20.501Z,9.70
2018-03-11T16:53:48.090Z,9.70
2018-03-11T16:56:15.720Z,9.70
2018-03-11T16:58:43.317Z,9.70
2018-03-11T17:01:11.705Z,9.70
2018-03-11T17:03:39.308Z,9.70
2018-03-11T17:06:06.951Z,9.70
2018-03-11T17:08:34.545Z,9.70
2018-03-11T17:11:02.136Z,9.70
2018-03-11T17:13:29.752Z,9.70
2018-03-11T17:15:57.342Z,9.70
2018-03-11T17:18:24.962Z,9.70
2018-03-11T17:20:52.557Z,9.60
2018-03-11T17:23:20.946Z,9.60
2018-03-11T17:25:48.541Z,9.60
2018-03-11T17:28:16.166Z,9.60
2018-03-11T17:30:43.761Z,9.60
2018-03-11T17:33:12.160Z,9.60
2018-03-11T17:35:39.754Z,9.50
2018-03-11T17:38:08.117Z,9.50
2018-03-11T17:40:36.509Z,9.60
2018-03-11T17:43:04.098Z,9.50
2018-03-11T17:45:31.713Z,9.60
2018-03-11T17:47:59.309Z,9.50
2018-03-11T17:50:26.986Z,9.50
2018-03-11T17:52:55.329Z,9.50
2018-03-11T17:55:23.766Z,9.50
2018-03-11T17:57:51.401Z,9.50
2018-03-11T18:00:19.001Z,9.50
2018-03-11T18:02:47.402Z,9.50
2018-03-11T18:05:15.002Z,9.40
2018-03-11T18:07:43.373Z,9.50
2018-03-11T18:10:11.764Z,9.50
2018-03-11T18:12:39.415Z,9.40
2018-03-11T18:15:07.076Z,9.40
2018-03-11T18:17:34.702Z,9.40
2018-03-11T18:20:02.329Z,9.40
2018-03-11T18:22:30.696Z,9.40
2018-03-11T18:24:59.093Z,9.40
2018-03-11T18:27:27.493Z,9.40
2018-03-11T18:29:55.134Z,9.30
2018-03-11T18:32:22.782Z,9.40
2018-03-11T18:34:50.701Z,9.40
2018-03-11T18:37:18.385Z,9.40
2018-03-11T18:39:46.045Z,9.40
2018-03-11T18:42:13.771Z,9.40
2018-03-11T18:44:41.521Z,9.40
2018-03-11T18:47:09.286Z,9.40
2018-03-11T18:49:36.936Z,9.40
2018-03-11T18:52:04.545Z,9.40
2018-03-11T18:54:32.153Z,9.40
2018-03-11T18:56:59.815Z,9.40
2018-03-11T18:59:27.450Z,9.40
2018-03-11T19:01:55.848Z,9.40
2018-03-11T19:04:23.540Z,9.30
2018-03-11T19:06:51.910Z,9.40
2018-03-11T19:09:20.005Z,9.40
2018-03-11T19:11:47.687Z,9.40
2018-03-11T19:14:15.289Z,9.40
2018-03-11T19:16:42.884Z,9.40
2018-03-11T19:19:10.517Z,9.40
2018-03-11T19:21:38.143Z,9.40
2018-03-11T19:24:05.749Z,9.40
2018-03-11T19:26:34.196Z,9.40
2018-03-11T19:29:02.372Z,9.30
2018-03-11T19:31:30.768Z,9.30
2018-03-11T19:33:58.368Z,9.30
2018-03-11T19:36:25.997Z,9.30
2018-03-11T19:38:53.630Z,9.30
2018-03-11T19:41:21.228Z,9.30
2018-03-11T19:43:49.621Z,9.20
2018-03-11T19:46:17.226Z,9.20
2018-03-11T19:48:44.856Z,9.30
2018-03-11T19:51:12.480Z,9.20
2018-03-11T19:53:40.104Z,9.20
2018-03-11T19:56:07.701Z,9.20
2018-03-11T19:58:35.325Z,9.20
2018-03-11T20:01:02.997Z,9.20
2018-03-11T20:03:30.732Z,9.10
2018-03-11T20:05:58.392Z,9.10
2018-03-11T20:08:26.017Z,9.10
2018-03-11T20:10:53.641Z,9.10
2018-03-11T20:13:21.281Z,9.10
2018-03-11T20:15:48.877Z,9.10
2018-03-11T20:18:16.527Z,9.00
2018-03-11T20:20:44.167Z,9.00
2018-03-11T20:23:11.765Z,9.00
2018-03-11T20:25:39.397Z,8.90
2018-03-11T20:28:07.770Z,8.90
2018-03-11T20:30:35.401Z,8.90
2018-03-11T20:33:03.769Z,8.90
2018-03-11T20:35:32.173Z,8.90
2018-03-11T20:37:59.772Z,8.80
2018-03-11T20:40:28.211Z,8.90
2018-03-11T20:42:55.852Z,8.80
2018-03-11T20:45:23.449Z,8.90
2018-03-11T20:47:51.097Z,8.90
2018-03-11T20:50:19.473Z,8.90
2018-03-11T20:52:47.130Z,8.80
2018-03-11T20:55:14.732Z,8.90
2018-03-11T20:57:43.116Z,8.90
2018-03-11T21:00:10.749Z,8.80
2018-03-11T21:02:39.114Z,8.90
2018-03-11T21:05:07.513Z,8.90
2018-03-11T21:07:35.116Z,8.90
2018-03-11T21:10:03.505Z,8.90
2018-03-11T21:12:31.109Z,8.80
2018-03-11T21:14:58.749Z,8.90
2018-03-11T21:17:26.349Z,8.80
2018-03-11T21:19:53.952Z,8.90
2018-03-11T21:22:21.578Z,8.80
2018-03-11T21:24:49.212Z,8.80
2018-03-11T21:27:16.843Z,8.80
2018-03-11T21:29:44.533Z,8.80
2018-03-11T21:32:12.161Z,8.80
2018-03-11T21:34:39.794Z,8.80
2018-03-11T21:37:07.394Z,8.80
2018-03-11T21:39:35.789Z,8.80
2018-03-11T21:42:03.398Z,8.70
2018-03-11T21:44:31.021Z,8.80
2018-03-11T21:46:58.629Z,8.80
2018-03-11T21:49:26.227Z,8.80
2018-03-11T21:51:53.961Z,8.80
2018-03-11T21:54:21.557Z,8.70
2018-03-11T21:56:49.945Z,8.70
2018-03-11T21:59:17.549Z,8.70
2018-03-11T22:01:45.933Z,8.70
2018-03-11T22:04:14.358Z,8.70
2018-03-11T22:06:41.953Z,8.70
2018-03-11T22:09:09.581Z,8.70
2018-03-11T22:11:37.945Z,8.70
2018-03-11T22:14:06.340Z,8.70
2018-03-11T22:16:33.945Z,8.70
2018-03-11T22:19:01.593Z,8.70
2018-03-11T22:21:29.953Z,8.60
2018-03-11T22:23:57.548Z,8.60
2018-03-11T22:26:25.190Z,8.60
2018-03-11T22:28:52.793Z,8.60
2018-03-11T22:31:21.166Z,8.60
2018-03-11T22:33:50.065Z,8.60
2018-03-11T22:36:17.681Z,8.60
2018-03-11T22:38:45.275Z,8.60
2018-03-11T22:41:12.891Z,8.60
2018-03-11T22:43:41.286Z,8.60
2018-03-11T22:46:08.889Z,8.60
2018-03-11T22:48:37.278Z,8.60
2018-03-11T22:51:04.869Z,8.60
2018-03-11T22:53:32.512Z,8.60
2018-03-11T22:56:00.140Z,8.60
2018-03-11T22:58:27.729Z,8.60
2018-03-11T23:00:55.349Z,8.60
2018-03-11T23:03:22.948Z,8.60
2018-03-11T23:05:50.625Z,8.60
2018-03-11T23:08:18.251Z,8.60
2018-03-11T23:10:45.852Z,8.60
2018-03-11T23:13:13.479Z,8.60
2018-03-11T23:15:41.077Z,8.60
2018-03-11T23:18:09.465Z,8.60
2018-03-11T23:20:37.092Z,8.50
2018-03-11T23:23:04.729Z,8.50
2018-03-11T23:25:33.084Z,8.60
2018-03-11T23:28:01.455Z,8.60
2018-03-11T23:30:29.889Z,8.60
2018-03-11T23:32:57.489Z,8.50
2018-03-11T23:35:25.130Z,8.60
2018-03-11T23:37:52.733Z,8.60
2018-03-11T23:40:20.373Z,8.60
2018-03-11T23:42:47.973Z,8.60
2018-03-11T23:45:15.599Z,8.60
2018-03-11T23:47:43.962Z,8.50
2018-03-11T23:50:12.349Z,8.50
2018-03-11T23:52:39.993Z,8.50
2018-03-11T23:55:07.600Z,8.60
2018-03-11T23:57:35.222Z,8.50
